createdAt,value
2022-08-14T00:02:07.058Z,101156.13
2022-08-14T00:07:13.941Z,101157.94
2022-08-14T00:12:24.415Z,101146.44
2022-08-14T00:17:27.956Z,101141.13
2022-08-14T00:22:57.016Z,101129.56
2022-08-14T00:27:56.477Z,101128.78
2022-08-14T00:32:59.999Z,101124.38
2022-08-14T00:38:02.976Z,101118.16
2022-08-14T00:43:12.804Z,101114.69
2022-08-14T00:48:34.590Z,101115.63
2022-08-14T00:53:43.099Z,101104.06
2022-08-14T00:58:48.706Z,101101.53
2022-08-14T01:03:53.909Z,101092.66
2022-08-14T01:08:59.449Z,101091.81
2022-08-14T01:19:44.469Z,101074.91
2022-08-14T01:24:51.757Z,101069.59
2022-08-14T01:29:59.410Z,101074.09
2022-08-14T01:35:18.393Z,101065.25
2022-08-14T01:40:41.047Z,101056.41
2022-08-14T01:45:49.031Z,101062.66
2022-08-14T01:51:02.941Z,101063.59
2022-08-14T01:56:16.736Z,101057.41
2022-08-14T02:01:21.731Z,101062.75
2022-08-14T02:06:33.475Z,101056.56
2022-08-14T02:11:38.110Z,101053.03
2022-08-14T02:16:43.411Z,101052.19
2022-08-14T02:21:50.352Z,101049.56
2022-08-14T02:28:20.161Z,101046.91
2022-08-14T02:32:20.025Z,101050.47
2022-08-14T02:37:37.413Z,101046.03
2022-08-14T02:42:54.780Z,101038.94
2022-08-14T02:48:00.529Z,101050.53
2022-08-14T02:53:04.864Z,101030.16
2022-08-14T02:58:09.409Z,101026.59
2022-08-14T03:03:12.582Z,101027.50
2022-08-14T03:08:16.066Z,101019.50
2022-08-14T03:13:23.318Z,101020.41
2022-08-14T03:18:31.545Z,101020.44
2022-08-14T03:23:38.697Z,101030.25
2022-08-14T03:28:46.244Z,101016.94
2022-08-14T03:33:51.812Z,101019.59
2022-08-14T03:39:14.270Z,101006.28
2022-08-14T03:45:26.419Z,101007.16
2022-08-14T03:49:49.947Z,101007.16
2022-08-14T03:54:53.242Z,101010.72
2022-08-14T03:59:57.833Z,101005.38
2022-08-14T04:05:11.883Z,101005.41
2022-08-14T04:10:17.247Z,101003.63
2022-08-14T04:15:23.411Z,101000.97
2022-08-14T04:20:26.912Z,100992.06
2022-08-14T04:25:32.180Z,100991.19
2022-08-14T04:30:39.316Z,100968.97
2022-08-14T04:35:56.502Z,100974.31
2022-08-14T04:41:17.686Z,100979.63
2022-08-14T04:46:55.817Z,100971.63
2022-08-14T04:51:56.039Z,100971.63
2022-08-14T04:56:59.229Z,100963.66
2022-08-14T05:02:03.531Z,100970.75
2022-08-14T05:07:09.348Z,100963.66
2022-08-14T05:13:13.190Z,100965.44
2022-08-14T05:17:44.213Z,100965.41
2022-08-14T05:22:57.910Z,100955.66
2022-08-14T05:28:11.394Z,100961.00
2022-08-14T05:33:21.041Z,100955.66
2022-08-14T05:38:31.127Z,100953.88
2022-08-14T05:43:41.604Z,100954.75
2022-08-14T05:48:48.635Z,100954.72
2022-08-14T05:54:01.701Z,100947.59
2022-08-14T05:59:13.208Z,100952.94
2022-08-14T06:04:21.280Z,100950.25
2022-08-14T06:09:24.402Z,100954.69
2022-08-14T06:14:27.372Z,100959.09
2022-08-14T06:19:32.033Z,100956.38
2022-08-14T06:24:35.867Z,100954.56
2022-08-14T06:29:39.835Z,100949.25
2022-08-14T06:35:04.069Z,100945.59
2022-08-14T06:40:25.536Z,100943.75
2022-08-14T06:45:30.992Z,100947.22
2022-08-14T06:50:35.464Z,100940.03
2022-08-14T06:55:40.742Z,100932.81
2022-08-14T07:01:26.793Z,100938.03
2022-08-14T07:06:46.616Z,100928.06
2022-08-14T07:11:50.806Z,100925.28
2022-08-14T07:21:58.073Z,100920.53
2022-08-14T07:27:01.276Z,100923.03
2022-08-14T07:32:06.351Z,100924.66
2022-08-14T07:37:14.802Z,100921.81
2022-08-14T07:42:22.555Z,100926.84
2022-08-14T07:47:26.123Z,100921.13
2022-08-14T07:52:42.489Z,100916.09
2022-08-14T07:57:51.907Z,100914.53
2022-08-14T08:02:57.076Z,100907.50
2022-08-14T08:08:08.464Z,100900.25
2022-08-14T08:13:30.153Z,100911.13
2022-08-14T08:18:33.265Z,100901.09
2022-08-14T08:23:50.878Z,100904.22
2022-08-14T08:28:57.856Z,100895.63
2022-08-14T08:34:06.170Z,100896.41
2022-08-14T08:39:17.303Z,100879.94
2022-08-14T08:44:33.378Z,100877.00
2022-08-14T08:49:52.918Z,100876.66
2022-08-14T08:55:05.586Z,100888.16
2022-08-14T09:00:24.333Z,100872.63
2022-08-14T09:05:29.170Z,100868.31
2022-08-14T09:10:33.521Z,100873.06
2022-08-14T09:15:42.734Z,100879.69
2022-08-14T09:20:49.382Z,100868.78
2022-08-14T09:25:59.063Z,100861.22
2022-08-14T09:31:17.345Z,100856.97
2022-08-14T09:36:36.886Z,100845.22
2022-08-14T09:42:20.188Z,100835.34
2022-08-14T09:47:18.781Z,100832.78
2022-08-14T09:52:34.077Z,100824.53
2022-08-14T09:57:38.911Z,100821.09
2022-08-14T10:02:56.420Z,100817.72
2022-08-14T10:08:01.957Z,100808.75
2022-08-14T10:13:08.660Z,100803.75
2022-08-14T10:18:18.546Z,100800.06
2022-08-14T10:23:24.328Z,100792.84
2022-08-14T10:29:18.238Z,100788.81
2022-08-14T10:34:13.295Z,100779.31
2022-08-14T10:39:19.151Z,100774.69
2022-08-14T10:44:29.549Z,100759.75
2022-08-14T10:49:34.172Z,100752.63
2022-08-14T10:54:40.472Z,100751.75
2022-08-14T10:59:49.899Z,100760.06
2022-08-14T11:05:08.684Z,100752.22
2022-08-14T11:10:14.577Z,100739.97
2022-08-14T11:15:21.396Z,100741.50
2022-08-14T11:20:29.195Z,100732.84
2022-08-14T11:25:36.846Z,100737.47
2022-08-14T11:30:53.977Z,100749.50
2022-08-14T11:36:00.434Z,100734.53
2022-08-14T11:41:05.565Z,100739.59
2022-08-14T11:46:17.716Z,100716.56
2022-08-14T11:51:50.849Z,100710.47
2022-08-14T11:56:57.217Z,100684.56
2022-08-14T12:02:38.860Z,100680.09
2022-08-14T12:07:35.365Z,100682.59
2022-08-14T12:12:39.374Z,100669.19
2022-08-14T12:17:50.661Z,100658.75
2022-08-14T12:22:55.046Z,100651.03
2022-08-14T12:28:01.613Z,100654.38
2022-08-14T12:33:08.899Z,100656.25
2022-08-14T12:38:19.241Z,100645.03
2022-08-14T12:43:22.872Z,100638.25
2022-08-14T12:48:31.646Z,100629.59
2022-08-14T12:53:38.967Z,100629.50
2022-08-14T12:58:52.022Z,100622.47
2022-08-14T13:04:08.417Z,100615.41
2022-08-14T13:09:15.786Z,100604.22
2022-08-14T13:14:29.878Z,100605.44
2022-08-14T13:19:34.772Z,100599.59
2022-08-14T13:24:39.796Z,100611.03
2022-08-14T13:29:46.521Z,100597.66
2022-08-14T13:34:52.518Z,100589.72
2022-08-14T13:39:57.748Z,100584.88
2022-08-14T13:45:03.096Z,100574.97
2022-08-14T13:50:11.532Z,100570.97
2022-08-14T13:55:19.185Z,100571.97
2022-08-14T14:00:32.720Z,100567.97
2022-08-14T14:05:52.173Z,100559.34
2022-08-14T14:10:57.106Z,100552.66
2022-08-14T14:16:03.915Z,100548.09
2022-08-14T14:21:09.054Z,100554.16
2022-08-14T14:26:20.021Z,100545.31
2022-08-14T14:31:30.035Z,100553.22
2022-08-14T14:36:35.656Z,100536.16
2022-08-14T14:41:43.687Z,100536.97
2022-08-14T14:46:51.119Z,100524.13
2022-08-14T14:51:57.930Z,100523.09
2022-08-14T14:57:02.167Z,100523.00
2022-08-14T15:02:09.435Z,100522.06
2022-08-14T15:07:16.343Z,100518.34
2022-08-14T15:12:56.361Z,100507.13
2022-08-14T15:17:42.483Z,100498.59
2022-08-14T15:22:51.309Z,100497.50
2022-08-14T15:27:55.011Z,100478.25
2022-08-14T15:32:58.012Z,100503.16
2022-08-14T15:38:07.862Z,100496.88
2022-08-14T15:43:12.847Z,100485.72
2022-08-14T15:48:22.558Z,100484.28
2022-08-14T15:53:31.371Z,100478.91
2022-08-14T15:58:35.583Z,100484.38
2022-08-14T16:03:42.347Z,100484.81
2022-08-14T16:08:58.998Z,100475.88
2022-08-14T16:14:06.802Z,100468.69
2022-08-14T16:19:11.440Z,100474.41
2022-08-14T16:24:27.045Z,100462.97
2022-08-14T16:29:32.895Z,100459.97
2022-08-14T16:34:46.757Z,100453.78
2022-08-14T16:39:54.153Z,100460.75
2022-08-14T16:44:58.718Z,100451.28
2022-08-14T16:50:04.829Z,100435.75
2022-08-14T16:55:17.743Z,100433.94
2022-08-14T17:00:32.657Z,100433.66
2022-08-14T17:05:38.309Z,100434.59
2022-08-14T17:16:25.218Z,100420.03
2022-08-14T17:21:31.737Z,100417.16
2022-08-14T17:26:38.665Z,100416.03
2022-08-14T17:31:59.014Z,100408.69
2022-08-14T17:37:05.224Z,100407.38
2022-08-14T17:42:16.656Z,100402.41
2022-08-14T17:47:38.370Z,100405.72
2022-08-14T17:52:50.094Z,100406.56
2022-08-14T17:57:54.666Z,100410.91
2022-08-14T18:03:00.199Z,100412.66
2022-08-14T18:08:32.755Z,100401.06
2022-08-14T18:13:51.890Z,100405.22
2022-08-14T18:19:02.774Z,100415.75
2022-08-14T18:24:28.357Z,100406.22
2022-08-14T18:29:31.609Z,100407.56
2022-08-14T18:34:48.508Z,100410.66
2022-08-14T18:40:03.484Z,100414.91
2022-08-14T18:45:15.329Z,100419.06
2022-08-14T18:50:27.863Z,100406.09
2022-08-14T18:55:53.223Z,100413.69
2022-08-14T19:00:59.522Z,100412.19
2022-08-14T19:06:05.663Z,100415.84
2022-08-14T19:11:50.486Z,100419.56
2022-08-14T19:16:55.025Z,100411.50
2022-08-14T19:22:01.945Z,100414.22
2022-08-14T19:27:18.996Z,100418.88
2022-08-14T19:32:41.125Z,100407.22
2022-08-14T19:37:48.465Z,100409.91
2022-08-14T19:42:58.438Z,100407.13
2022-08-14T19:48:02.970Z,100409.53
2022-08-14T19:53:11.205Z,100410.22
2022-08-14T19:58:15.070Z,100412.66
2022-08-14T20:03:23.193Z,100415.84
2022-08-14T20:11:00.609Z,100416.75
2022-08-14T20:14:10.330Z,100421.72
2022-08-14T20:19:16.687Z,100415.34
2022-08-14T20:24:31.198Z,100404.59
2022-08-14T20:29:37.867Z,100419.56
2022-08-14T20:34:51.165Z,100414.56
2022-08-14T20:39:56.746Z,100411.31
2022-08-14T20:45:23.565Z,100410.91
2022-08-14T20:50:29.606Z,100407.47
2022-08-14T20:55:45.119Z,100408.53
2022-08-14T21:00:52.430Z,100397.38
2022-08-14T21:05:58.929Z,100400.16
2022-08-14T21:11:02.812Z,100396.91
2022-08-14T21:16:33.750Z,100387.22
2022-08-14T21:21:41.462Z,100377.81
2022-08-14T21:26:50.822Z,100379.94
2022-08-14T21:31:56.673Z,100379.34
2022-08-14T21:37:09.759Z,100385.00
2022-08-14T21:42:13.950Z,100381.66
2022-08-14T21:47:20.532Z,100371.94
2022-08-14T21:52:51.247Z,100367.75
2022-08-14T21:58:46.164Z,100378.69
2022-08-14T22:03:19.288Z,100379.94
2022-08-14T22:08:29.427Z,100379.38
2022-08-14T22:13:32.725Z,100375.19
2022-08-14T22:18:36.558Z,100373.47
2022-08-14T22:23:41.313Z,100362.94
2022-08-14T22:28:46.706Z,100372.03
2022-08-14T22:33:59.285Z,100357.84
2022-08-14T22:39:06.762Z,100357.09
2022-08-14T22:44:20.038Z,100353.69
2022-08-14T22:50:32.024Z,100347.56
2022-08-14T22:54:52.589Z,100348.50
2022-08-14T22:59:57.285Z,100342.31
2022-08-14T23:05:03.937Z,100340.59
2022-08-14T23:10:31.647Z,100338.03
2022-08-14T23:15:34.091Z,100333.75
2022-08-14T23:20:39.598Z,100337.38
2022-08-14T23:25:57.955Z,100328.47
2022-08-14T23:31:05.615Z,100324.00
2022-08-14T23:36:32.064Z,100322.25
2022-08-14T23:41:45.761Z,100320.50
2022-08-14T23:46:52.806Z,100309.75
2022-08-14T23:52:50.071Z,100307.09
2022-08-14T23:57:30.719Z,100308.09
